Terminal Aerodrome Forecast
Issued by NWS Cleveland, OH

Home | Current Version | Previous Version | Text Only | Print | Product List | Glossary Off
Versions: 1 2 3 4 5 6 7 8 9 10 11 12 13 14 15 16 17 18 19 20 21 22 23 24

000
FTUS41 KCLE 260218 AAB
TAFERI
TAF AMD
KERI 260218Z 2602/2624 06014KT P6SM SCT006 OVC060
      TEMPO 2602/2606 BKN006
     FM261000 10012G20KT P6SM SCT008 OVC025
     FM261700 15012G20KT P6SM VCSH SCT015 OVC040=

USA.gov is the U.S. government's official web portal to all federal, state and local government web resources and services.